createdAt,value
2022-09-15T00:00:12.367Z,100715.06
2022-09-15T00:02:42.579Z,100706.94
2022-09-15T00:05:14.221Z,100710.59
2022-09-15T00:07:44.795Z,100716.69
2022-09-15T00:10:15.606Z,100713.06
2022-09-15T00:12:47.819Z,100714.69
2022-09-15T00:15:18.942Z,100710.63
2022-09-15T00:17:54.226Z,100717.97
2022-09-15T00:20:25.343Z,100720.41
2022-09-15T00:22:55.857Z,100711.91
2022-09-15T00:25:25.549Z,100718.03
2022-09-15T00:27:57.640Z,100711.50
2022-09-15T00:30:28.362Z,100718.41
2022-09-15T00:32:58.683Z,100715.59
2022-09-15T00:35:29.089Z,100716.44
2022-09-15T00:37:59.428Z,100718.06
2022-09-15T00:40:29.912Z,100715.63
2022-09-15T00:43:02.005Z,100710.34
2022-09-15T00:45:32.682Z,100716.88
2022-09-15T00:48:02.978Z,100718.50
2022-09-15T00:50:35.853Z,100714.03
2022-09-15T00:53:11.080Z,100717.31
2022-09-15T00:55:47.862Z,100724.22
2022-09-15T00:58:26.335Z,100716.91
2022-09-15T01:03:49.200Z,100726.25
2022-09-15T01:06:28.045Z,100726.25
2022-09-15T01:09:07.257Z,100722.19
2022-09-15T01:11:38.819Z,100716.94
2022-09-15T01:14:11.028Z,100728.69
2022-09-15T01:20:27.849Z,100714.94
2022-09-15T01:23:23.175Z,100724.66
2022-09-15T01:26:40.270Z,100712.91
2022-09-15T01:29:57.826Z,100719.41
2022-09-15T01:33:07.318Z,100719.41
2022-09-15T01:35:54.045Z,100717.78
2022-09-15T01:38:35.679Z,100714.13
2022-09-15T01:41:14.417Z,100720.63
2022-09-15T01:43:56.155Z,100723.47
2022-09-15T01:46:33.733Z,100723.47
2022-09-15T01:49:07.750Z,100721.03
2022-09-15T01:51:41.321Z,100716.56
2022-09-15T01:54:13.575Z,100720.63
2022-09-15T01:56:44.327Z,100725.53
2022-09-15T01:59:14.419Z,100724.69
2022-09-15T02:01:55.446Z,100725.13
2022-09-15T02:04:33.634Z,100731.22
2022-09-15T02:07:16.768Z,100727.56
2022-09-15T02:09:55.227Z,100728.78
2022-09-15T02:12:37.294Z,100735.28
2022-09-15T02:15:15.551Z,100728.78
2022-09-15T02:17:55.079Z,100737.31
2022-09-15T02:20:42.384Z,100732.03
2022-09-15T02:23:21.396Z,100733.25
2022-09-15T02:25:57.354Z,100732.03
2022-09-15T02:28:36.138Z,100731.63
2022-09-15T02:31:13.491Z,100732.84
2022-09-15T02:33:53.357Z,100733.28
2022-09-15T02:36:25.663Z,100732.88
2022-09-15T02:39:00.517Z,100728.03
2022-09-15T02:41:31.000Z,100726.41
2022-09-15T02:44:01.411Z,100731.66
2022-09-15T02:46:32.168Z,100728.81
2022-09-15T02:49:04.523Z,100729.63
2022-09-15T02:51:34.938Z,100737.34
2022-09-15T02:54:05.385Z,100737.34
2022-09-15T02:56:35.472Z,100741.00
2022-09-15T02:59:05.749Z,100751.16
2022-09-15T03:01:35.990Z,100747.91
2022-09-15T03:04:09.168Z,100746.31
2022-09-15T03:06:39.664Z,100754.41
2022-09-15T03:09:11.786Z,100756.84
2022-09-15T03:11:42.168Z,100762.91
2022-09-15T03:14:12.776Z,100753.19
2022-09-15T03:16:43.455Z,100757.63
2022-09-15T03:19:16.054Z,100765.34
2022-09-15T03:21:46.010Z,100758.03
2022-09-15T03:24:16.132Z,100768.63
2022-09-15T03:26:46.505Z,100771.44
2022-09-15T03:29:16.901Z,100769.00
2022-09-15T03:31:46.711Z,100765.38
2022-09-15T03:34:19.302Z,100772.66
2022-09-15T03:36:49.389Z,100771.03
2022-09-15T03:39:19.508Z,100776.72
2022-09-15T03:41:50.031Z,100778.34
2022-09-15T03:44:20.440Z,100773.47
2022-09-15T03:46:51.457Z,100771.44
2022-09-15T03:49:23.841Z,100786.47
2022-09-15T03:51:54.377Z,100784.44
2022-09-15T03:54:24.140Z,100786.47
2022-09-15T03:56:54.714Z,100786.88
2022-09-15T03:59:25.131Z,100793.34
2022-09-15T04:01:55.368Z,100796.19
2022-09-15T04:04:27.248Z,100804.72
2022-09-15T04:06:58.109Z,100806.34
2022-09-15T04:09:28.906Z,100806.34
2022-09-15T04:11:59.014Z,100814.88
2022-09-15T04:14:28.655Z,100815.69
2022-09-15T04:16:59.071Z,100812.03
2022-09-15T04:19:31.765Z,100814.88
2022-09-15T04:22:02.260Z,100807.56
2022-09-15T04:24:32.839Z,100812.88
2022-09-15T04:27:02.432Z,100820.13
2022-09-15T04:29:40.768Z,100823.44
2022-09-15T04:32:11.999Z,100830.72
2022-09-15T04:34:44.333Z,100829.09
2022-09-15T04:37:14.514Z,100827.09
2022-09-15T04:39:45.035Z,100830.34
2022-09-15T04:42:15.151Z,100826.66
2022-09-15T04:44:45.384Z,100829.09
2022-09-15T04:47:15.161Z,100828.25
2022-09-15T04:49:47.372Z,100829.88
2022-09-15T04:52:17.700Z,100834.34
2022-09-15T04:54:48.103Z,100833.13
2022-09-15T04:57:18.177Z,100827.81
2022-09-15T04:59:49.358Z,100820.53
2022-09-15T05:02:19.263Z,100827.41
2022-09-15T05:04:53.821Z,100830.22
2022-09-15T05:07:24.126Z,100830.63
2022-09-15T05:09:54.650Z,100830.22
2022-09-15T05:12:25.006Z,100833.03
2022-09-15T05:14:55.509Z,100834.66
2022-09-15T05:17:26.856Z,100832.66
2022-09-15T05:19:59.433Z,100837.13
2022-09-15T05:22:30.623Z,100835.91
2022-09-15T05:25:01.111Z,100835.09
2022-09-15T05:27:34.781Z,100831.84
2022-09-15T05:30:32.717Z,100830.59
2022-09-15T05:32:56.615Z,100837.88
2022-09-15T05:35:28.958Z,100835.41
2022-09-15T05:37:59.820Z,100845.94
2022-09-15T05:40:30.321Z,100842.66
2022-09-15T05:43:01.211Z,100846.69
2022-09-15T05:45:31.581Z,100844.63
2022-09-15T05:48:01.811Z,100842.16
2022-09-15T05:50:34.310Z,100840.88
2022-09-15T05:53:04.719Z,100843.25
2022-09-15T05:55:39.531Z,100840.72
2022-09-15T05:58:09.785Z,100847.19
2022-09-15T06:00:40.860Z,100853.69
2022-09-15T06:03:16.597Z,100858.94
2022-09-15T06:05:48.669Z,100855.19
2022-09-15T06:08:19.411Z,100855.94
2022-09-15T06:10:49.812Z,100854.66
2022-09-15T06:13:20.315Z,100858.25
2022-09-15T06:15:50.022Z,100850.44
2022-09-15T06:18:20.117Z,100851.59
2022-09-15T06:20:51.857Z,100853.97
2022-09-15T06:23:22.305Z,100856.31
2022-09-15T06:25:53.208Z,100850.09
2022-09-15T06:28:23.479Z,100856.97
2022-09-15T06:30:54.136Z,100859.75
2022-09-15T06:33:24.518Z,100859.28
2022-09-15T06:35:56.756Z,100853.53
2022-09-15T06:38:27.074Z,100856.72
2022-09-15T06:41:02.089Z,100861.50
2022-09-15T06:43:34.524Z,100857.75
2022-09-15T06:46:09.677Z,100863.75
2022-09-15T06:48:41.136Z,100855.47
2022-09-15T06:51:17.833Z,100852.09
2022-09-15T06:53:48.970Z,100853.59
2022-09-15T06:56:21.332Z,100862.88
2022-09-15T06:58:52.281Z,100857.50
2022-09-15T07:01:26.837Z,100863.53
2022-09-15T07:03:58.557Z,100874.06
2022-09-15T07:06:32.292Z,100868.66
2022-09-15T07:09:02.940Z,100871.88
2022-09-15T07:11:34.552Z,100867.28
2022-09-15T07:14:04.658Z,100858.22
2022-09-15T07:16:35.588Z,100862.19
2022-09-15T07:19:06.914Z,100859.66
2022-09-15T07:21:39.209Z,100853.03
2022-09-15T07:24:10.753Z,100867.63
2022-09-15T07:26:41.277Z,100864.25
2022-09-15T07:29:11.693Z,100863.81
2022-09-15T07:31:42.454Z,100863.31
2022-09-15T07:34:12.893Z,100862.88
2022-09-15T07:36:44.922Z,100854.31
2022-09-15T07:39:15.449Z,100857.16
2022-09-15T07:41:45.831Z,100864.13
2022-09-15T07:44:16.051Z,100858.41
2022-09-15T07:46:45.811Z,100852.25
2022-09-15T07:49:16.437Z,100855.03
2022-09-15T07:51:48.644Z,100844.34
2022-09-15T07:54:22.629Z,100848.38
2022-09-15T07:56:52.649Z,100837.69
2022-09-15T07:59:23.076Z,100836.38
2022-09-15T08:01:53.404Z,100839.97
2022-09-15T08:04:23.812Z,100835.78
2022-09-15T08:06:55.447Z,100835.38
2022-09-15T08:09:25.924Z,100836.53
2022-09-15T08:11:56.424Z,100830.75
2022-09-15T08:14:26.639Z,100828.63
2022-09-15T08:16:56.976Z,100833.06
2022-09-15T08:19:27.340Z,100827.25
2022-09-15T08:22:04.263Z,100832.13
2022-09-15T08:24:34.535Z,100827.63
2022-09-15T08:27:04.390Z,100828.81
2022-09-15T08:29:34.146Z,100830.84
2022-09-15T08:32:05.308Z,100828.81
2022-09-15T08:34:35.659Z,100825.88
2022-09-15T08:37:07.601Z,100822.13
2022-09-15T08:39:37.768Z,100820.88
2022-09-15T08:42:09.268Z,100816.78
2022-09-15T08:44:49.080Z,100812.22
2022-09-15T08:47:26.737Z,100810.50
2022-09-15T08:50:05.621Z,100816.16
2022-09-15T08:52:43.522Z,100805.88
2022-09-15T08:55:24.076Z,100807.88
2022-09-15T08:57:56.937Z,100802.50
2022-09-15T09:00:26.933Z,100805.75
2022-09-15T09:03:37.764Z,100806.91
2022-09-15T09:06:23.565Z,100808.53
2022-09-15T09:09:27.270Z,100809.22
2022-09-15T09:12:31.260Z,100805.53
2022-09-15T09:15:19.204Z,100800.63
2022-09-15T09:18:23.906Z,100800.16
2022-09-15T09:21:08.061Z,100803.41
2022-09-15T09:23:51.897Z,100801.69
2022-09-15T09:26:24.530Z,100800.44
2022-09-15T09:29:02.434Z,100806.56
2022-09-15T09:31:32.933Z,100804.06
2022-09-15T09:34:19.946Z,100794.56
2022-09-15T09:36:57.251Z,100789.66
2022-09-15T09:39:29.570Z,100794.13
2022-09-15T09:42:03.275Z,100790.34
2022-09-15T09:44:33.974Z,100784.19
2022-09-15T09:47:05.305Z,100785.78
2022-09-15T09:49:41.265Z,100780.00
2022-09-15T09:52:12.799Z,100788.91
2022-09-15T09:54:43.909Z,100783.13
2022-09-15T09:57:33.016Z,100784.28
2022-09-15T10:00:03.765Z,100777.31
2022-09-15T10:02:34.404Z,100776.84
2022-09-15T10:05:22.052Z,100776.84
2022-09-15T10:07:52.654Z,100777.31
2022-09-15T10:10:25.413Z,100765.03
2022-09-15T10:13:01.833Z,100753.94
2022-09-15T10:15:35.263Z,100762.53
2022-09-15T10:18:05.590Z,100757.63
2022-09-15T10:20:55.152Z,100750.19
2022-09-15T10:23:31.828Z,100744.44
2022-09-15T10:26:33.746Z,100744.00
2022-09-15T10:29:19.058Z,100751.34
2022-09-15T10:31:50.036Z,100745.25
2022-09-15T10:34:41.186Z,100737.81
2022-09-15T10:37:27.426Z,100728.41
2022-09-15T10:40:00.598Z,100737.81
2022-09-15T10:42:52.630Z,100733.78
2022-09-15T10:45:42.310Z,100731.00
2022-09-15T10:48:56.205Z,100727.88
2022-09-15T10:51:46.842Z,100736.47
2022-09-15T10:54:58.059Z,100732.91
2022-09-15T10:57:53.339Z,100729.22
2022-09-15T11:00:31.073Z,100727.16
2022-09-15T11:03:50.983Z,100718.91
2022-09-15T11:06:31.734Z,100712.38
2022-09-15T11:09:17.448Z,100729.56
2022-09-15T11:12:05.013Z,100719.47
2022-09-15T11:14:54.125Z,100722.84
2022-09-15T11:17:47.399Z,100717.66
2022-09-15T11:20:42.329Z,100715.31
2022-09-15T11:23:23.339Z,100722.84
2022-09-15T11:26:01.378Z,100716.38
2022-09-15T11:28:46.285Z,100715.63
2022-09-15T11:31:24.396Z,100711.94
2022-09-15T11:34:02.326Z,100708.28
2022-09-15T11:36:39.878Z,100706.66
2022-09-15T11:39:23.065Z,100705.88
2022-09-15T11:42:01.572Z,100705.50
2022-09-15T11:44:34.855Z,100703.91
2022-09-15T11:47:22.612Z,100703.63
2022-09-15T11:50:00.260Z,100699.59
2022-09-15T11:53:00.713Z,100694.75
2022-09-15T11:55:39.664Z,100697.25
2022-09-15T11:58:27.860Z,100689.09
2022-09-15T12:01:05.482Z,100694.00
2022-09-15T12:03:42.472Z,100692.06
2022-09-15T12:06:21.006Z,100688.81
2022-09-15T12:09:02.318Z,100695.06
2022-09-15T12:11:39.448Z,100688.25
2022-09-15T12:14:16.682Z,100686.72
2022-09-15T12:16:49.879Z,100689.19
2022-09-15T12:19:40.185Z,100690.44
2022-09-15T12:22:21.687Z,100686.03
2022-09-15T12:25:01.819Z,100686.50
2022-09-15T12:27:34.179Z,100686.56
2022-09-15T12:30:06.379Z,100684.13
2022-09-15T12:32:38.585Z,100677.25
2022-09-15T12:35:34.437Z,100680.09
2022-09-15T12:38:05.248Z,100681.81
2022-09-15T12:40:42.396Z,100674.47
2022-09-15T12:43:26.048Z,100681.88
2022-09-15T12:46:01.244Z,100672.94
2022-09-15T12:48:36.960Z,100675.03
2022-09-15T12:51:11.295Z,100675.13
2022-09-15T12:53:55.167Z,100667.44
2022-09-15T12:56:29.682Z,100670.34
2022-09-15T12:59:07.478Z,100665.53
2022-09-15T13:01:51.506Z,100675.78
2022-09-15T13:04:56.084Z,100664.47
2022-09-15T13:07:57.832Z,100661.31
2022-09-15T13:10:42.247Z,100672.03
2022-09-15T13:13:33.485Z,100668.78
2022-09-15T13:16:10.704Z,100666.00
2022-09-15T13:18:44.359Z,100662.78
2022-09-15T13:21:24.218Z,100666.13
2022-09-15T13:23:57.793Z,100663.34
2022-09-15T13:26:33.478Z,100662.63
2022-09-15T13:29:04.702Z,100663.13
2022-09-15T13:31:51.344Z,100668.09
2022-09-15T13:35:19.959Z,100655.13
2022-09-15T13:38:49.343Z,100661.81
2022-09-15T13:41:52.289Z,100664.31
2022-09-15T13:44:57.209Z,100665.94
2022-09-15T13:47:52.705Z,100659.91
2022-09-15T13:50:34.305Z,100666.03
2022-09-15T13:53:43.021Z,100664.47
2022-09-15T13:56:21.978Z,100665.38
2022-09-15T13:58:57.286Z,100660.06
2022-09-15T14:01:35.126Z,100656.47
2022-09-15T14:04:16.485Z,100661.38
2022-09-15T14:06:51.497Z,100664.28
2022-09-15T14:09:27.054Z,100656.97
2022-09-15T14:12:04.389Z,100659.03
2022-09-15T14:14:42.799Z,100655.78
2022-09-15T14:17:25.620Z,100661.50
2022-09-15T14:20:00.130Z,100652.56
2022-09-15T14:22:32.409Z,100648.91
2022-09-15T14:25:09.536Z,100656.28
2022-09-15T14:27:46.447Z,100651.88
2022-09-15T14:30:25.135Z,100658.84
2022-09-15T14:33:00.779Z,100659.72
2022-09-15T14:35:41.301Z,100659.34
2022-09-15T14:38:24.916Z,100656.91
2022-09-15T14:41:00.016Z,100651.19
2022-09-15T14:43:36.795Z,100654.88
2022-09-15T14:46:16.415Z,100650.41
2022-09-15T14:48:47.119Z,100648.00
2022-09-15T14:51:26.678Z,100645.13
2022-09-15T14:54:03.544Z,100652.88
2022-09-15T14:56:38.517Z,100648.06
2022-09-15T14:59:17.220Z,100646.06
2022-09-15T15:01:59.298Z,100650.22
2022-09-15T15:04:41.891Z,100650.69
2022-09-15T15:07:23.081Z,100654.03
2022-09-15T15:09:59.542Z,100651.25
2022-09-15T15:12:37.889Z,100665.13
2022-09-15T15:15:12.850Z,100657.00
2022-09-15T15:17:48.512Z,100652.88
2022-09-15T15:20:23.109Z,100653.34
2022-09-15T15:23:21.178Z,100650.09
2022-09-15T15:25:52.023Z,100653.00
2022-09-15T15:28:44.873Z,100649.75
2022-09-15T15:31:20.731Z,100648.16
2022-09-15T15:34:06.259Z,100644.47
2022-09-15T15:36:38.531Z,100646.16
2022-09-15T15:39:27.128Z,100644.53
2022-09-15T15:42:08.839Z,100642.91
2022-09-15T15:44:38.798Z,100643.34
2022-09-15T15:47:27.992Z,100647.00
2022-09-15T15:50:13.633Z,100643.34
2022-09-15T15:52:45.550Z,100646.19
2022-09-15T15:55:20.322Z,100647.00
2022-09-15T15:57:53.681Z,100643.75
2022-09-15T16:00:30.540Z,100647.84
2022-09-15T16:03:02.155Z,100643.03
2022-09-15T16:05:34.036Z,100645.88
2022-09-15T16:08:09.041Z,100643.44
2022-09-15T16:10:47.679Z,100643.88
2022-09-15T16:13:20.275Z,100645.09
2022-09-15T16:15:51.867Z,100649.63
2022-09-15T16:18:21.886Z,100649.25
2022-09-15T16:20:53.063Z,100639.91
2022-09-15T16:23:25.891Z,100644.78
2022-09-15T16:26:04.265Z,100648.84
2022-09-15T16:28:34.880Z,100647.25
2022-09-15T16:31:04.762Z,100650.09
2022-09-15T16:33:38.073Z,100645.63
2022-09-15T16:36:12.888Z,100646.88
2022-09-15T16:38:45.204Z,100650.53
2022-09-15T16:41:20.267Z,100648.91
2022-09-15T16:43:51.534Z,100653.00
2022-09-15T16:46:22.632Z,100662.78
2022-09-15T16:48:53.349Z,100672.16
2022-09-15T16:51:31.024Z,100661.56
2022-09-15T16:54:01.507Z,100670.09
2022-09-15T16:56:33.455Z,100666.03
2022-09-15T16:59:03.531Z,100679.09
2022-09-15T17:01:33.993Z,100683.63
2022-09-15T17:04:06.646Z,100683.25
2022-09-15T17:06:36.981Z,100686.09
2022-09-15T17:09:07.434Z,100686.50
2022-09-15T17:11:39.272Z,100687.75
2022-09-15T17:14:11.073Z,100684.53
2022-09-15T17:16:41.880Z,100698.78
2022-09-15T17:19:12.498Z,100687.78
2022-09-15T17:21:42.836Z,100695.94
2022-09-15T17:24:13.187Z,100693.47
2022-09-15T17:26:45.621Z,100697.59
2022-09-15T17:29:16.012Z,100687.44
2022-09-15T17:31:46.760Z,100699.63
2022-09-15T17:34:17.072Z,100700.44
2022-09-15T17:36:47.924Z,100704.53
2022-09-15T17:39:18.312Z,100706.94
2022-09-15T17:41:50.758Z,100709.00
2022-09-15T17:44:21.131Z,100711.47
2022-09-15T17:46:51.618Z,100710.66
2022-09-15T17:49:22.000Z,100720.03
2022-09-15T17:51:52.291Z,100714.31
2022-09-15T17:54:22.370Z,100719.19
2022-09-15T17:56:54.663Z,100723.66
2022-09-15T17:59:24.412Z,100722.03
2022-09-15T18:01:54.539Z,100724.09
2022-09-15T18:04:24.515Z,100727.38
2022-09-15T18:06:54.977Z,100728.63
2022-09-15T18:09:25.642Z,100728.63
2022-09-15T18:11:58.484Z,100734.31
2022-09-15T18:14:28.741Z,100734.72
2022-09-15T18:16:59.174Z,100741.25
2022-09-15T18:19:29.563Z,100740.44
2022-09-15T18:21:59.867Z,100746.97
2022-09-15T18:24:30.638Z,100735.97
2022-09-15T18:27:03.149Z,100751.03
2022-09-15T18:29:32.941Z,100747.38
2022-09-15T18:32:03.935Z,100749.41
2022-09-15T18:34:34.865Z,100738.00
2022-09-15T18:37:05.273Z,100750.22
2022-09-15T18:39:35.535Z,100746.56
2022-09-15T18:42:07.514Z,100750.63
2022-09-15T18:44:37.389Z,100744.91
2022-09-15T18:47:07.914Z,100750.63
2022-09-15T18:49:37.769Z,100747.78
2022-09-15T18:52:08.121Z,100755.53
2022-09-15T18:54:40.067Z,100751.84
2022-09-15T18:57:12.348Z,100749.00
2022-09-15T18:59:43.129Z,100755.13
2022-09-15T19:02:14.977Z,100753.50
2022-09-15T19:04:46.105Z,100753.50
2022-09-15T19:07:16.372Z,100749.03
2022-09-15T19:09:46.399Z,100748.22
2022-09-15T19:12:18.315Z,100753.13
2022-09-15T19:14:49.393Z,100744.19
2022-09-15T19:17:19.336Z,100750.31
2022-09-15T19:19:49.594Z,100742.19
2022-09-15T19:22:19.947Z,100748.31
2022-09-15T19:24:50.192Z,100741.81
2022-09-15T19:27:22.977Z,100740.19
2022-09-15T19:29:53.682Z,100735.72
2022-09-15T19:32:24.262Z,100734.88
2022-09-15T19:34:54.609Z,100739.78
2022-09-15T19:37:25.527Z,100734.09
2022-09-15T19:39:55.693Z,100735.31
2022-09-15T19:42:27.862Z,100743.88
2022-09-15T19:44:57.504Z,100741.84
2022-09-15T19:47:27.953Z,100735.31
2022-09-15T19:49:58.486Z,100740.22
2022-09-15T19:52:29.110Z,100743.88
2022-09-15T19:54:59.547Z,100739.41
2022-09-15T19:57:32.001Z,100736.56
2022-09-15T20:00:02.019Z,100741.47
2022-09-15T20:02:32.315Z,100743.47
2022-09-15T20:05:02.544Z,100733.31
2022-09-15T20:07:33.340Z,100741.06
2022-09-15T20:10:03.260Z,100732.50
2022-09-15T20:12:35.950Z,100730.09
2022-09-15T20:15:07.349Z,100732.13
2022-09-15T20:17:42.079Z,100738.25
2022-09-15T20:20:14.343Z,100733.78
2022-09-15T20:22:44.718Z,100735.84
2022-09-15T20:25:15.049Z,100734.22
2022-09-15T20:27:48.093Z,100733.41
2022-09-15T20:30:23.727Z,100728.13
2022-09-15T20:32:54.041Z,100730.16
2022-09-15T20:35:23.857Z,100732.22
2022-09-15T20:37:53.642Z,100735.84
2022-09-15T20:40:23.895Z,100732.66
2022-09-15T20:42:55.914Z,100732.66
2022-09-15T20:45:26.220Z,100726.94
2022-09-15T20:47:55.931Z,100720.41
2022-09-15T20:50:27.736Z,100731.81
2022-09-15T20:52:57.955Z,100732.25
2022-09-15T20:55:28.293Z,100726.56
2022-09-15T20:58:00.678Z,100727.78
2022-09-15T21:00:33.864Z,100730.63
2022-09-15T21:03:04.388Z,100729.81
2022-09-15T21:05:34.298Z,100735.50
2022-09-15T21:08:05.787Z,100726.94
2022-09-15T21:10:35.749Z,100734.69
2022-09-15T21:13:10.565Z,100728.22
2022-09-15T21:15:41.129Z,100722.13
2022-09-15T21:18:11.590Z,100717.22
2022-09-15T21:20:41.565Z,100720.88
2022-09-15T21:23:12.457Z,100722.13
2022-09-15T21:25:42.870Z,100716.81
2022-09-15T21:28:15.396Z,100721.72
2022-09-15T21:30:45.778Z,100714.41
2022-09-15T21:33:15.394Z,100717.25
2022-09-15T21:35:45.401Z,100710.38
2022-09-15T21:38:15.828Z,100709.97
2022-09-15T21:40:50.379Z,100707.56
2022-09-15T21:43:21.847Z,100706.75
2022-09-15T21:45:58.737Z,100707.16
2022-09-15T21:48:29.545Z,100718.56
2022-09-15T21:50:59.868Z,100719.78
2022-09-15T21:53:30.637Z,100711.66
2022-09-15T21:56:04.109Z,100712.44
2022-09-15T21:58:42.181Z,100710.81
2022-09-15T22:01:17.246Z,100711.25
2022-09-15T22:03:51.870Z,100713.28
2022-09-15T22:06:27.809Z,100709.25
2022-09-15T22:08:58.622Z,100712.53
2022-09-15T22:11:28.883Z,100702.75
2022-09-15T22:14:02.222Z,100709.66
2022-09-15T22:16:32.732Z,100708.06
2022-09-15T22:19:03.235Z,100712.53
2022-09-15T22:21:37.210Z,100703.97
2022-09-15T22:24:09.680Z,100701.13
2022-09-15T22:26:42.381Z,100702.34
2022-09-15T22:29:15.038Z,100700.72
2022-09-15T22:31:45.271Z,100700.72
2022-09-15T22:34:15.803Z,100700.34
2022-09-15T22:36:46.223Z,100704.84
2022-09-15T22:39:16.642Z,100697.53
2022-09-15T22:41:46.889Z,100699.19
2022-09-15T22:44:23.547Z,100700.00
2022-09-15T22:46:53.978Z,100704.56
2022-09-15T22:49:23.616Z,100700.97
2022-09-15T22:51:53.899Z,100690.00
2022-09-15T22:54:24.186Z,100694.50
2022-09-15T22:56:54.526Z,100687.22
2022-09-15T22:59:28.105Z,100690.50
2022-09-15T23:01:58.364Z,100697.03
2022-09-15T23:04:28.642Z,100698.22
2022-09-15T23:06:59.089Z,100691.72
2022-09-15T23:09:28.902Z,100702.28
2022-09-15T23:11:59.337Z,100684.41
2022-09-15T23:14:31.406Z,100688.06
2022-09-15T23:17:01.639Z,100683.19
2022-09-15T23:19:31.805Z,100687.69
2022-09-15T23:22:02.128Z,100688.47
2022-09-15T23:24:33.268Z,100695.00
2022-09-15T23:27:03.522Z,100688.06
2022-09-15T23:29:35.809Z,100688.88
2022-09-15T23:32:06.476Z,100692.53
2022-09-15T23:34:36.491Z,100690.91
2022-09-15T23:37:06.858Z,100686.03
2022-09-15T23:39:37.056Z,100692.94
2022-09-15T23:42:07.185Z,100680.75
2022-09-15T23:44:39.199Z,100684.84
2022-09-15T23:47:09.836Z,100669.00
2022-09-15T23:49:40.276Z,100677.53
2022-09-15T23:52:10.528Z,100672.63
2022-09-15T23:54:40.258Z,100666.50
2022-09-15T23:57:12.069Z,100670.19
2022-09-15T23:59:44.340Z,100681.13
